Time;durP1;ratioP1;P1;durP2;ratioP2;P2;SDS_P1;SDS_P2;PMS_P1;PMS_P2;Temp;Humidity;BMP_temperature;BMP_pressure;BME280_temperature;BME280_humidity;BME280_pressure;Samples;Min_cycle;Max_cycle;Signal;HPM_P1;HPM_P2
2024/01/17 00:00:28;;;;;;;5.22;2.40;;;10.80;76.80;;;;;;6135088;23;19993;-81
2024/01/17 00:02:57;;;;;;;4.95;2.28;;;11.70;77.30;;;;;;6159867;23;19993;-82
2024/01/17 00:05:27;;;;;;;4.05;2.22;;;10.80;76.80;;;;;;6184849;23;19996;-81
2024/01/17 00:08:26;;;;;;;5.35;2.50;;;10.80;76.70;;;;;;6159361;23;20005;-81
2024/01/17 00:10:57;;;;;;;4.18;2.38;;;10.70;76.70;;;;;;6159680;23;19993;-81
2024/01/17 00:13:23;;;;;;;4.15;2.30;;;10.80;76.70;;;;;;6135132;23;20005;-83
2024/01/17 00:15:50;;;;;;;4.38;2.33;;;11.00;76.90;;;;;;6159454;23;19998;-84
2024/01/17 00:18:16;;;;;;;5.18;2.33;;;11.00;76.90;;;;;;6159384;23;20061;-81
2024/01/17 00:20:42;;;;;;;4.18;2.00;;;10.90;76.80;;;;;;6159150;23;20017;-81
2024/01/17 00:23:08;;;;;;;5.57;2.63;;;10.80;76.80;;;;;;6159243;23;19994;-83
2024/01/17 00:25:34;;;;;;;3.97;2.15;;;10.90;76.90;;;;;;6159048;23;19997;-80
2024/01/17 00:28:00;;;;;;;4.43;2.47;;;10.80;76.90;;;;;;6158663;23;20028;-81
2024/01/17 00:30:29;;;;;;;4.15;2.10;;;10.80;76.80;;;;;;6158802;23;20005;-81
2024/01/17 00:32:56;;;;;;;4.10;2.28;;;10.80;76.80;;;;;;6133803;23;20037;-81
2024/01/17 00:35:25;;;;;;;5.82;2.58;;;10.90;76.90;;;;;;6184367;23;20045;-81
2024/01/17 00:38:10;;;;;;;3.83;1.98;;;11.00;76.90;;;;;;6158810;23;19990;-80
2024/01/17 00:40:40;;;;;;;5.00;2.42;;;10.90;76.70;;;;;;6184680;23;20021;-81
2024/01/17 00:43:07;;;;;;;5.18;2.30;;;10.90;76.70;;;;;;6159149;23;19990;-81
2024/01/17 00:46:02;;;;;;;4.57;2.20;;;10.80;76.50;;;;;;6182340;23;20054;-81
2024/01/17 00:48:31;;;;;;;4.63;2.30;;;10.80;76.50;;;;;;6133951;23;20009;-81
2024/01/17 00:50:57;;;;;;;4.45;2.25;;;10.90;77.00;;;;;;6184256;23;19990;-85
2024/01/17 00:53:40;;;;;;;4.40;2.30;;;10.90;76.40;;;;;;6184233;23;20009;-81
2024/01/17 00:56:09;;;;;;;4.60;1.98;;;10.90;76.50;;;;;;6159240;23;20021;-83
2024/01/17 00:58:46;;;;;;;4.72;2.20;;;10.90;76.40;;;;;;6152460;23;20009;-81
2024/01/17 01:01:13;;;;;;;4.80;2.40;;;10.90;76.30;;;;;;6161997;23;20009;-81
2024/01/17 01:03:42;;;;;;;4.32;2.25;;;10.90;76.30;;;;;;6158993;23;20010;-81
2024/01/17 01:06:08;;;;;;;4.68;2.17;;;10.90;76.40;;;;;;6158888;23;20020;-81
2024/01/17 01:08:36;;;;;;;5.13;2.38;;;10.90;76.40;;;;;;6184094;23;20007;-82
2024/01/17 01:11:02;;;;;;;3.55;1.92;;;10.80;76.30;;;;;;6133988;23;19990;-81
2024/01/17 01:13:31;;;;;;;4.32;2.05;;;11.00;76.40;;;;;;6158881;23;20018;-85
2024/01/17 01:15:57;;;;;;;4.20;2.30;;;10.80;76.30;;;;;;6158647;23;20000;-82
2024/01/17 01:18:23;;;;;;;4.22;2.20;;;10.90;76.40;;;;;;6183405;23;20025;-80
2024/01/17 01:20:49;;;;;;;4.57;2.33;;;10.70;76.20;;;;;;6158466;23;20013;-84
2024/01/17 01:23:15;;;;;;;4.93;2.22;;;11.10;76.50;;;;;;6158846;23;20021;-81
2024/01/17 01:25:42;;;;;;;4.63;2.20;;;10.40;75.90;;;;;;6158623;23;19986;-81
2024/01/17 01:28:11;;;;;;;4.15;2.08;;;10.90;76.10;;;;;;6134324;23;20020;-83
2024/01/17 01:30:37;;;;;;;4.20;2.30;;;10.80;76.00;;;;;;6158771;23;20045;-81
2024/01/17 01:33:03;;;;;;;4.45;2.15;;;11.00;76.00;;;;;;6158076;23;20001;-81
2024/01/17 01:35:29;;;;;;;5.07;2.25;;;10.90;75.80;;;;;;6109778;23;19994;-81
2024/01/17 01:37:56;;;;;;;4.65;2.58;;;10.90;75.80;;;;;;6183832;23;20021;-84
2024/01/17 01:40:23;;;;;;;4.53;2.10;;;10.80;75.70;;;;;;6158788;23;19988;-83
2024/01/17 01:42:50;;;;;;;3.80;2.10;;;11.00;76.40;;;;;;6158820;23;20033;-81
2024/01/17 01:45:16;;;;;;;4.68;2.05;;;10.90;75.90;;;;;;6158526;23;19989;-81
2024/01/17 01:47:43;;;;;;;3.78;1.90;;;10.90;75.90;;;;;;6158667;23;19994;-81
2024/01/17 01:50:11;;;;;;;3.40;1.80;;;10.90;75.80;;;;;;6158805;23;20002;-81
2024/01/17 01:52:41;;;;;;;4.53;2.30;;;10.80;75.80;;;;;;6134275;23;20013;-82
2024/01/17 01:55:07;;;;;;;3.95;2.10;;;10.80;75.70;;;;;;6158559;23;19990;-81
2024/01/17 01:57:37;;;;;;;3.53;1.95;;;10.90;75.70;;;;;;6158201;23;20016;-84
2024/01/17 02:00:06;;;;;;;3.88;2.03;;;11.00;75.80;;;;;;6158105;23;19986;-81
2024/01/17 02:02:49;;;;;;;4.30;2.08;;;10.90;75.80;;;;;;6158120;23;20045;-85
2024/01/17 02:05:16;;;;;;;4.90;2.20;;;10.80;75.90;;;;;;6183354;23;20021;-80
2024/01/17 02:07:42;;;;;;;3.95;2.10;;;11.40;76.10;;;;;;6158288;23;19997;-81
2024/01/17 02:10:08;;;;;;;3.88;2.08;;;11.00;76.10;;;;;;6158239;23;20029;-80
2024/01/17 02:12:45;;;;;;;5.38;2.17;;;10.90;76.00;;;;;;6158094;23;19998;-82
2024/01/17 02:15:11;;;;;;;4.40;2.13;;;10.90;75.90;;;;;;6158643;23;19997;-83
2024/01/17 02:17:37;;;;;;;5.00;2.20;;;10.80;75.90;;;;;;6158299;23;19994;-81
2024/01/17 02:20:03;;;;;;;5.10;2.40;;;10.90;76.10;;;;;;6157882;23;20045;-81
2024/01/17 02:22:33;;;;;;;4.20;2.10;;;10.90;75.90;;;;;;6158832;23;20038;-85
2024/01/17 02:25:03;;;;;;;3.92;2.05;;;11.00;76.00;;;;;;6158525;23;20009;-84
2024/01/17 02:27:29;;;;;;;7.00;2.10;;;11.00;76.10;;;;;;6157756;23;20037;-80
2024/01/17 02:29:59;;;;;;;4.57;2.13;;;10.90;76.10;;;;;;6157846;23;19990;-80
2024/01/17 02:32:25;;;;;;;4.03;2.00;;;10.90;76.20;;;;;;6157834;23;19998;-82
2024/01/17 02:34:53;;;;;;;4.57;2.10;;;10.80;76.20;;;;;;6183075;23;19996;-82
2024/01/17 02:37:19;;;;;;;3.85;2.00;;;10.80;76.00;;;;;;6157848;23;20005;-82
2024/01/17 02:39:45;;;;;;;4.15;2.20;;;11.80;76.60;;;;;;6158106;23;19990;-80
2024/01/17 02:42:11;;;;;;;4.68;2.28;;;10.80;76.00;;;;;;6157632;23;19993;-83
2024/01/17 02:44:37;;;;;;;3.80;2.05;;;11.00;76.00;;;;;;6157861;23;19989;-81
2024/01/17 02:47:03;;;;;;;3.95;2.00;;;10.80;75.90;;;;;;6157172;23;19997;-81
2024/01/17 02:49:29;;;;;;;5.03;2.30;;;10.80;76.00;;;;;;6157269;23;20013;-83
2024/01/17 02:51:55;;;;;;;4.32;2.17;;;10.80;76.00;;;;;;6157771;23;19986;-80
2024/01/17 02:54:21;;;;;;;4.45;2.05;;;11.00;76.30;;;;;;6158170;23;19990;-82
2024/01/17 02:56:47;;;;;;;4.85;2.38;;;10.80;76.00;;;;;;6157993;23;19989;-81
2024/01/17 02:59:14;;;;;;;4.82;2.20;;;11.10;76.30;;;;;;6157837;23;20000;-81
2024/01/17 03:01:40;;;;;;;4.90;2.00;;;11.60;76.50;;;;;;6182812;23;19996;-84
2024/01/17 03:04:06;;;;;;;4.25;2.08;;;11.00;76.20;;;;;;6157326;23;19994;-81
2024/01/17 03:06:32;;;;;;;5.43;2.40;;;10.90;76.10;;;;;;6156883;23;20020;-80
2024/01/17 03:08:58;;;;;;;5.03;2.05;;;11.10;76.20;;;;;;6157420;23;20024;-84
2024/01/17 03:11:24;;;;;;;3.92;2.00;;;10.90;76.00;;;;;;6157886;23;20067;-82
2024/01/17 03:13:50;;;;;;;3.63;1.98;;;10.90;76.00;;;;;;6157136;23;20037;-80
2024/01/17 03:16:19;;;;;;;4.95;2.13;;;10.80;76.00;;;;;;6158500;23;20050;-83
2024/01/17 03:18:45;;;;;;;4.90;2.20;;;10.80;76.10;;;;;;6160018;23;20017;-81
2024/01/17 03:21:13;;;;;;;4.30;2.00;;;11.10;76.20;;;;;;6159638;23;19990;-81
2024/01/17 03:23:39;;;;;;;3.40;1.92;;;10.80;76.10;;;;;;6135113;23;20002;-82
2024/01/17 03:26:05;;;;;;;3.45;2.00;;;10.80;76.10;;;;;;6158882;23;20061;-80
2024/01/17 03:28:31;;;;;;;3.83;2.00;;;10.90;76.00;;;;;;6158965;23;19997;-81
2024/01/17 03:30:57;;;;;;;4.35;1.88;;;10.80;76.00;;;;;;6158939;23;19989;-82
2024/01/17 03:33:24;;;;;;;4.75;2.10;;;11.00;76.10;;;;;;6159591;23;20017;-82
2024/01/17 03:35:50;;;;;;;4.43;2.15;;;10.80;76.00;;;;;;6159724;23;19990;-84
2024/01/17 03:38:18;;;;;;;3.90;2.00;;;10.90;76.10;;;;;;6159382;23;20000;-81
2024/01/17 03:40:45;;;;;;;4.00;1.90;;;10.80;76.00;;;;;;6184601;23;19990;-81
2024/01/17 03:43:12;;;;;;;3.92;2.30;;;10.80;76.00;;;;;;6159347;23;19989;-81
2024/01/17 03:45:37;;;;;;;4.05;2.10;;;11.00;76.20;;;;;;6110893;23;19989;-81
2024/01/17 03:48:06;;;;;;;3.75;1.98;;;11.00;76.20;;;;;;6158095;23;19993;-81
2024/01/17 03:50:42;;;;;;;4.20;2.08;;;10.80;76.10;;;;;;6183972;23;19986;-81
2024/01/17 03:53:08;;;;;;;4.10;2.10;;;10.90;76.20;;;;;;6158770;23;20045;-82
2024/01/17 03:55:34;;;;;;;3.25;1.83;;;10.80;76.10;;;;;;6159330;23;19990;-81
2024/01/17 03:58:00;;;;;;;5.40;2.17;;;10.80;76.20;;;;;;6158551;23;20014;-80
2024/01/17 04:00:28;;;;;;;4.63;2.17;;;10.90;76.30;;;;;;6158546;23;19998;-83
2024/01/17 04:02:54;;;;;;;3.67;1.90;;;10.70;76.20;;;;;;6158825;23;20005;-82
2024/01/17 04:05:20;;;;;;;3.97;2.10;;;11.70;76.80;;;;;;6159198;23;20021;-84
2024/01/17 04:07:46;;;;;;;4.18;2.03;;;10.90;76.30;;;;;;6159117;23;20033;-85
2024/01/17 04:10:13;;;;;;;3.85;1.85;;;10.90;76.40;;;;;;6159553;23;19985;-81
2024/01/17 04:12:39;;;;;;;3.13;1.75;;;10.80;76.40;;;;;;6159162;23;20013;-81
2024/01/17 04:15:06;;;;;;;3.33;2.03;;;10.70;76.40;;;;;;6158720;23;19997;-84
2024/01/17 04:17:33;;;;;;;3.08;1.67;;;11.00;76.50;;;;;;6159461;23;20024;-83
2024/01/17 04:19:59;;;;;;;3.95;1.92;;;10.80;76.40;;;;;;6159358;23;20017;-80
2024/01/17 04:22:25;;;;;;;3.53;1.75;;;10.80;76.40;;;;;;6158893;23;20001;-81
2024/01/17 04:24:51;;;;;;;4.00;2.05;;;11.00;76.60;;;;;;6158312;23;20009;-81
2024/01/17 04:27:21;;;;;;;3.28;1.67;;;11.00;76.60;;;;;;6158444;23;20001;-81
2024/01/17 04:35:34;;;;;;;3.75;2.00;;;10.80;76.40;;;;;;6183976;23;20008;-85
2024/01/17 04:38:18;;;;;;;4.50;2.00;;;10.80;76.40;;;;;;6188399;23;20012;-84
2024/01/17 04:41:05;;;;;;;4.35;1.90;;;10.80;76.50;;;;;;6210520;23;19997;-80
2024/01/17 04:44:10;;;;;;;3.30;1.83;;;11.10;76.60;;;;;;6188674;23;19996;-82
2024/01/17 04:47:12;;;;;;;4.25;1.77;;;10.80;76.50;;;;;;6194897;23;19998;-83
2024/01/17 05:00:02;;;;;;;3.28;1.83;;;10.80;76.50;;;;;;6198674;23;20391;-80
2024/01/17 05:17:11;;;;;;;4.13;1.90;;;10.80;76.50;;;;;;6155671;23;20021;-81
2024/01/17 05:19:38;;;;;;;4.03;2.00;;;10.80;76.60;;;;;;6185491;23;19985;-80
2024/01/17 05:25:04;;;;;;;3.90;1.70;;;10.80;76.60;;;;;;6153956;23;20021;-82
2024/01/17 05:27:30;;;;;;;4.35;1.80;;;10.80;76.60;;;;;;6186722;23;19989;-83
2024/01/17 05:29:56;;;;;;;4.00;1.75;;;10.70;76.60;;;;;;6185468;23;20005;-81
2024/01/17 05:32:22;;;;;;;3.55;1.90;;;10.80;76.50;;;;;;6184274;23;20053;-81
2024/01/17 05:34:50;;;;;;;3.17;1.80;;;11.00;76.80;;;;;;6185110;23;20072;-81
2024/01/17 05:37:19;;;;;;;3.00;1.70;;;10.90;76.70;;;;;;6211354;23;20005;-81
2024/01/17 05:39:45;;;;;;;4.63;1.90;;;10.60;76.50;;;;;;6210853;23;19993;-80
2024/01/17 05:42:17;;;;;;;3.17;1.80;;;10.90;76.70;;;;;;6186114;23;20040;-81
2024/01/17 05:44:44;;;;;;;3.95;1.90;;;10.80;76.60;;;;;;6211732;23;19989;-81
2024/01/17 05:47:10;;;;;;;3.97;2.10;;;10.80;76.70;;;;;;6184336;23;20009;-81
2024/01/17 05:49:38;;;;;;;4.22;1.88;;;10.90;76.70;;;;;;6185501;23;19989;-80
2024/01/17 05:52:06;;;;;;;3.42;1.85;;;10.80;76.70;;;;;;6184320;23;20018;-81
2024/01/17 05:54:33;;;;;;;2.90;1.67;;;10.70;76.70;;;;;;6184946;23;20008;-81
2024/01/17 05:57:00;;;;;;;3.85;1.95;;;10.80;76.70;;;;;;6160778;23;20005;-81
2024/01/17 05:59:26;;;;;;;3.38;1.60;;;11.10;76.90;;;;;;6185707;23;20013;-81
2024/01/17 06:01:52;;;;;;;4.60;2.10;;;10.70;76.70;;;;;;6159692;23;20016;-81
2024/01/17 06:04:43;;;;;;;3.08;1.70;;;10.60;76.70;;;;;;6206450;23;19996;-81
2024/01/17 06:10:33;;;;;;;3.00;1.60;;;10.80;76.70;;;;;;6210981;23;20020;-81
2024/01/17 06:13:19;;;;;;;3.42;1.90;;;10.80;76.80;;;;;;6212161;23;19997;-80
2024/01/17 06:15:45;;;;;;;3.38;1.83;;;10.80;76.70;;;;;;6186546;23;20009;-81
2024/01/17 06:18:16;;;;;;;3.83;1.85;;;10.70;76.70;;;;;;6162090;23;19989;-81
2024/01/17 06:21:05;;;;;;;3.60;2.10;;;10.80;76.70;;;;;;6171504;23;20072;-82
2024/01/17 06:27:03;;;;;;;3.88;1.88;;;10.60;76.60;;;;;;6212608;23;20009;-81
2024/01/17 06:29:43;;;;;;;3.17;1.75;;;10.70;76.70;;;;;;6162085;23;19993;-81
2024/01/17 06:32:13;;;;;;;4.07;1.80;;;10.90;76.70;;;;;;6211686;23;19993;-81
2024/01/17 06:34:43;;;;;;;4.85;2.05;;;10.70;76.70;;;;;;6187337;23;20000;-81
2024/01/17 06:37:31;;;;;;;4.35;1.90;;;10.70;76.70;;;;;;6131907;23;20001;-81
2024/01/17 06:39:59;;;;;;;3.95;1.88;;;10.70;76.70;;;;;;6183343;23;19993;-82
2024/01/17 06:46:06;;;;;;;3.22;1.70;;;10.70;76.60;;;;;;6213575;23;19996;-83
2024/01/17 06:48:33;;;;;;;4.38;1.90;;;10.80;76.70;;;;;;6212102;23;19989;-82
2024/01/17 06:51:01;;;;;;;3.80;1.90;;;10.60;76.50;;;;;;6212003;23;20051;-84
2024/01/17 06:53:34;;;;;;;3.42;1.77;;;10.80;76.70;;;;;;6185868;23;20024;-80
2024/01/17 06:56:01;;;;;;;3.35;1.60;;;10.60;76.50;;;;;;6187141;23;19985;-82
2024/01/17 06:59:11;;;;;;;3.38;1.70;;;10.70;76.50;;;;;;6186527;23;19993;-82
2024/01/17 07:01:38;;;;;;;4.07;1.90;;;10.80;76.60;;;;;;6185249;23;20005;-81
2024/01/17 07:04:11;;;;;;;4.45;2.05;;;10.80;77.20;;;;;;6185843;23;19993;-85
2024/01/17 07:07:02;;;;;;;3.28;1.70;;;10.60;76.50;;;;;;6185973;23;20009;-84
2024/01/17 07:14:39;;;;;;;3.50;1.88;;;10.70;76.60;;;;;;6171516;23;20009;-81
2024/01/17 07:17:08;;;;;;;3.78;1.95;;;10.70;76.50;;;;;;6130525;23;19993;-83
2024/01/17 07:19:40;;;;;;;3.45;1.70;;;10.70;76.50;;;;;;6154984;23;20021;-80
2024/01/17 07:22:06;;;;;;;4.38;2.15;;;11.00;76.70;;;;;;6184421;23;19993;-86
2024/01/17 07:24:33;;;;;;;3.63;1.90;;;10.80;76.60;;;;;;6187147;23;19986;-86
2024/01/17 07:52:18;;;;;;;6.40;2.20;;;10.70;76.00;;;;;;6212307;23;20027;-80
2024/01/17 07:55:54;;;;;;;6.32;2.05;;;10.60;76.00;;;;;;6212722;23;20061;-80
2024/01/17 07:58:54;;;;;;;5.28;2.50;;;10.60;75.90;;;;;;6211467;23;19985;-81
2024/01/17 08:02:17;;;;;;;6.43;2.30;;;10.50;75.90;;;;;;6208387;23;20004;-80
2024/01/17 08:05:18;;;;;;;5.82;2.20;;;10.60;75.90;;;;;;6214820;23;20221;-81
2024/01/17 08:11:25;;;;;;;5.88;2.47;;;10.70;76.00;;;;;;6214871;23;20000;-81
2024/01/17 08:13:55;;;;;;;4.97;2.47;;;10.60;76.00;;;;;;6164716;23;20069;-80
2024/01/17 08:16:53;;;;;;;6.63;2.50;;;10.60;75.90;;;;;;6182578;23;19989;-80
2024/01/17 08:38:22;;;;;;;5.03;2.30;;;10.60;76.00;;;;;;6189661;23;20031;-81
2024/01/17 08:41:13;;;;;;;4.97;2.20;;;10.70;76.10;;;;;;6214265;23;20020;-80
2024/01/17 08:44:37;;;;;;;5.82;2.40;;;10.60;76.00;;;;;;6201067;23;20005;-82
2024/01/17 08:47:45;;;;;;;4.97;2.30;;;10.70;76.20;;;;;;6213023;23;20008;-81
2024/01/17 08:57:02;;;;;;;5.70;2.20;;;10.70;76.00;;;;;;6184109;23;19998;-80
2024/01/17 09:00:17;;;;;;;4.88;2.35;;;10.60;75.90;;;;;;6184131;23;19990;-81
2024/01/17 09:03:43;;;;;;;4.70;2.35;;;10.60;75.90;;;;;;6071440;23;19995;-81
2024/01/17 09:11:28;;;;;;;5.93;2.60;;;10.60;75.90;;;;;;6203945;23;20011;-80
2024/01/17 09:14:57;;;;;;;5.53;2.38;;;10.70;76.00;;;;;;6182423;23;20002;-81
2024/01/17 09:22:48;;;;;;;5.78;2.28;;;10.60;76.00;;;;;;6168045;23;20009;-81
2024/01/17 09:25:32;;;;;;;5.05;2.33;;;10.60;76.00;;;;;;6175876;23;19989;-80
2024/01/17 09:34:38;;;;;;;4.60;2.20;;;10.60;76.20;;;;;;6153466;23;20101;-81
2024/01/17 09:46:45;;;;;;;3.90;2.20;;;10.60;76.30;;;;;;6194393;23;20005;-81
2024/01/17 09:52:41;;;;;;;5.72;2.72;;;10.60;76.30;;;;;;6169186;23;20013;-87
2024/01/17 10:07:45;;;;;;;6.03;2.35;;;10.60;76.40;;;;;;6183601;23;20017;-81
2024/01/17 10:11:18;;;;;;;5.63;2.35;;;10.50;76.40;;;;;;6181116;23;20024;-83
2024/01/17 10:14:08;;;;;;;4.05;2.20;;;10.60;76.40;;;;;;6175797;23;20013;-80
2024/01/17 10:20:42;;;;;;;4.68;2.35;;;10.50;76.40;;;;;;6183735;23;20057;-80
2024/01/17 10:24:12;;;;;;;4.10;2.22;;;10.60;76.40;;;;;;6123572;23;20018;-80
2024/01/17 10:34:46;;;;;;;4.78;2.40;;;10.60;76.40;;;;;;6120873;23;20033;-80
2024/01/17 10:38:10;;;;;;;5.43;2.65;;;10.60;76.40;;;;;;6188538;23;19989;-80
2024/01/17 10:45:59;;;;;;;4.35;2.20;;;10.60;76.30;;;;;;6163570;23;20221;-82
2024/01/17 10:49:16;;;;;;;4.25;2.10;;;10.70;76.40;;;;;;6208792;23;19989;-80
2024/01/17 10:52:13;;;;;;;4.35;2.35;;;10.60;76.40;;;;;;6191313;23;20048;-81
2024/01/17 10:55:31;;;;;;;4.07;2.22;;;10.40;76.30;;;;;;6213337;23;20001;-83
2024/01/17 10:58:01;;;;;;;4.65;2.45;;;10.60;76.40;;;;;;6188091;23;19993;-80
2024/01/17 11:00:31;;;;;;;4.20;2.33;;;10.60;76.40;;;;;;6188619;23;20024;-83
2024/01/17 11:03:28;;;;;;;4.15;2.10;;;10.50;76.40;;;;;;6189255;23;20008;-84
2024/01/17 11:12:41;;;;;;;4.93;2.42;;;10.60;76.40;;;;;;6209094;23;20019;-80
2024/01/17 11:15:54;;;;;;;4.47;2.28;;;10.60;76.40;;;;;;6243277;23;20039;-81
2024/01/17 11:22:06;;;;;;;4.47;2.17;;;10.60;76.50;;;;;;6236799;23;20039;-82
2024/01/17 11:24:51;;;;;;;3.92;2.25;;;10.60;76.40;;;;;;6243257;23;20004;-81
2024/01/17 11:28:12;;;;;;;3.83;2.08;;;10.50;76.40;;;;;;6243221;23;19988;-81
2024/01/17 11:31:48;;;;;;;3.83;1.90;;;10.60;76.50;;;;;;6181096;23;20008;-84
2024/01/17 11:34:26;;;;;;;4.25;2.10;;;10.70;76.50;;;;;;6194650;23;20013;-81
2024/01/17 11:37:01;;;;;;;4.32;2.30;;;10.60;76.50;;;;;;6242422;23;19989;-80
2024/01/17 11:39:48;;;;;;;4.80;2.40;;;10.50;76.40;;;;;;6244635;23;19993;-80
2024/01/17 11:42:54;;;;;;;4.03;2.25;;;10.60;76.50;;;;;;6224805;23;20004;-80
2024/01/17 11:48:58;;;;;;;3.72;2.17;;;10.50;76.50;;;;;;6245390;23;20023;-80
2024/01/17 11:51:48;;;;;;;4.90;2.50;;;10.50;76.40;;;;;;6196033;23;19992;-81
2024/01/17 14:05:48;;;;;;;5.85;2.75;;;10.40;77.30;;;;;;6159359;23;20004;-82
2024/01/17 15:02:16;;;;;;;13.85;4.45;;;10.30;76.50;;;;;;6192052;23;20033;-82
2024/01/17 15:04:58;;;;;;;9.60;4.60;;;10.30;76.60;;;;;;6212815;23;19989;-80
2024/01/17 15:10:02;;;;;;;8.77;4.30;;;10.30;76.70;;;;;;6202954;23;20005;-83
2024/01/17 15:12:30;;;;;;;13.07;4.40;;;10.30;76.80;;;;;;6214091;23;20004;-83
2024/01/17 15:35:41;;;;;;;9.18;4.20;;;10.30;76.90;;;;;;6174192;23;20005;-81
2024/01/17 16:37:40;;;;;;;9.05;4.20;;;10.20;76.30;;;;;;6206517;23;20088;-83
2024/01/17 16:40:14;;;;;;;11.30;5.22;;;10.20;76.50;;;;;;6164469;23;19993;-83
2024/01/17 16:42:43;;;;;;;9.48;4.65;;;10.10;76.50;;;;;;6206175;23;20013;-82
2024/01/17 16:45:10;;;;;;;9.20;5.03;;;10.30;76.60;;;;;;6164162;23;20009;-85
2024/01/17 16:47:37;;;;;;;9.63;5.05;;;10.10;76.50;;;;;;6188571;23;19989;-83
2024/01/17 16:50:04;;;;;;;9.38;5.45;;;10.20;76.60;;;;;;6188410;23;20002;-82
2024/01/17 16:52:31;;;;;;;9.45;5.15;;;10.30;76.60;;;;;;6188882;23;20028;-85
2024/01/17 16:54:57;;;;;;;8.60;4.80;;;10.20;76.60;;;;;;6188398;23;20004;-81
2024/01/17 16:57:23;;;;;;;8.00;4.80;;;10.20;76.60;;;;;;6188884;23;19990;-81
2024/01/17 16:59:52;;;;;;;8.90;4.32;;;10.20;76.60;;;;;;6187845;23;20015;-81
2024/01/17 17:02:18;;;;;;;8.65;4.95;;;10.20;76.50;;;;;;6188328;23;20057;-84
2024/01/17 17:04:47;;;;;;;8.35;5.10;;;10.20;76.60;;;;;;6188332;23;19996;-80
2024/01/17 17:09:48;;;;;;;8.15;4.82;;;10.20;76.70;;;;;;6183758;23;19997;-83
2024/01/17 17:12:15;;;;;;;10.88;4.75;;;10.10;76.70;;;;;;6169258;23;20008;-84
2024/01/17 17:14:44;;;;;;;6.85;4.55;;;10.20;76.80;;;;;;6188409;23;19989;-84
2024/01/17 17:17:10;;;;;;;8.45;4.97;;;10.20;76.90;;;;;;6188589;23;19989;-85
2024/01/17 17:19:36;;;;;;;9.05;4.88;;;10.20;76.90;;;;;;6188669;23;19989;-84
2024/01/17 17:22:02;;;;;;;8.77;5.05;;;10.20;77.00;;;;;;6188427;23;19989;-84
2024/01/17 17:24:28;;;;;;;7.50;4.70;;;10.20;77.00;;;;;;6188868;23;20015;-81
2024/01/17 17:26:56;;;;;;;10.27;5.20;;;10.20;77.00;;;;;;6188751;23;19996;-81
2024/01/17 17:29:23;;;;;;;7.82;4.38;;;10.20;77.00;;;;;;6188607;23;19985;-84
2024/01/17 17:37:40;;;;;;;7.90;4.60;;;10.20;77.10;;;;;;6172585;23;20028;-84
2024/01/17 17:41:22;;;;;;;7.57;4.97;;;10.20;77.10;;;;;;5982174;24;20017;-82
2024/01/17 17:43:52;;;;;;;8.10;5.22;;;10.20;77.10;;;;;;5997564;23;20031;-84
2024/01/17 17:57:00;;;;;;;7.78;4.65;;;10.20;77.20;;;;;;6156504;23;20024;-79
2024/01/17 17:59:28;;;;;;;7.72;4.82;;;10.20;77.20;;;;;;6206521;23;20001;-82
2024/01/17 18:02:24;;;;;;;8.32;4.90;;;10.10;77.10;;;;;;6157060;23;20009;-81
2024/01/17 18:04:54;;;;;;;8.13;4.65;;;10.40;77.40;;;;;;6157725;23;20005;-80
2024/01/17 18:08:06;;;;;;;9.30;5.25;;;10.10;77.10;;;;;;6189838;23;19996;-82
2024/01/17 18:11:05;;;;;;;7.85;5.10;;;10.20;77.20;;;;;;6187902;23;19997;-83
2024/01/17 18:14:07;;;;;;;;;;;10.20;77.30;;;;;;6181833;23;20009;-83
2024/01/17 18:21:46;;;;;;;8.68;4.75;;;10.20;77.30;;;;;;6158405;23;20005;-84
2024/01/17 18:26:57;;;;;;;7.70;4.75;;;10.20;77.40;;;;;;6181608;23;20005;-83
2024/01/17 18:29:27;;;;;;;8.55;4.47;;;10.30;77.40;;;;;;6187851;23;19995;-82
2024/01/17 18:32:03;;;;;;;9.65;4.78;;;10.20;77.40;;;;;;6190536;23;19997;-84
2024/01/17 18:52:41;;;;;;;7.85;5.18;;;10.10;77.90;;;;;;6203614;23;20012;-82
2024/01/17 18:55:30;;;;;;;7.63;4.35;;;10.10;77.50;;;;;;6213437;23;19997;-83
2024/01/17 18:58:40;;;;;;;7.88;4.55;;;10.10;77.50;;;;;;6211971;23;20025;-83
2024/01/17 19:05:46;;;;;;;7.50;4.53;;;9.80;77.30;;;;;;6213915;23;19995;-82
2024/01/17 19:08:15;;;;;;;7.93;4.45;;;10.00;77.40;;;;;;6130454;23;20020;-83
2024/01/17 19:10:45;;;;;;;;;;;10.10;77.50;;;;;;6186757;23;20009;-82
2024/01/17 19:13:15;;;;;;;7.45;4.45;;;10.00;77.40;;;;;;6213237;23;19896;-82
2024/01/17 19:15:45;;;;;;;6.95;4.43;;;10.10;77.50;;;;;;6163651;23;20016;-83
2024/01/17 19:18:34;;;;;;;8.00;4.57;;;10.00;77.40;;;;;;6187910;23;20019;-82
2024/01/17 19:21:27;;;;;;;8.68;4.82;;;10.20;77.50;;;;;;6213020;23;19993;-83
2024/01/17 19:34:15;;;;;;;7.68;4.72;;;10.10;77.60;;;;;;6142055;23;20018;-81
2024/01/17 19:36:41;;;;;;;7.20;4.60;;;10.20;77.70;;;;;;6187873;23;20021;-81
2024/01/17 19:39:07;;;;;;;7.32;4.85;;;10.20;77.70;;;;;;6187474;23;19992;-84
2024/01/17 19:41:33;;;;;;;7.65;4.68;;;10.10;77.70;;;;;;6187494;23;19993;-81
2024/01/17 19:44:00;;;;;;;8.05;5.07;;;10.20;77.70;;;;;;6187808;23;20068;-82
2024/01/17 19:46:25;;;;;;;8.27;5.10;;;10.10;77.60;;;;;;6187208;23;19989;-83
2024/01/17 19:48:53;;;;;;;6.82;4.25;;;10.10;77.60;;;;;;6187224;23;20016;-82
2024/01/17 19:51:22;;;;;;;6.95;4.50;;;10.00;77.50;;;;;;6187098;23;19990;-83
2024/01/17 19:53:51;;;;;;;7.40;4.82;;;10.00;77.60;;;;;;6187258;23;19997;-81
2024/01/17 19:56:36;;;;;;;8.00;4.70;;;10.10;77.60;;;;;;6212718;23;20007;-83
2024/01/17 19:59:06;;;;;;;6.88;4.55;;;10.00;77.60;;;;;;6205820;23;20013;-83
2024/01/17 20:01:51;;;;;;;7.40;4.50;;;10.10;78.10;;;;;;6207389;23;20070;-81
2024/01/17 20:04:23;;;;;;;7.43;4.90;;;10.10;77.70;;;;;;6189280;23;19993;-81
2024/01/17 20:07:06;;;;;;;8.00;4.93;;;10.20;77.70;;;;;;6214744;23;20016;-84
2024/01/17 20:09:32;;;;;;;7.30;5.13;;;10.10;77.60;;;;;;6189759;23;19997;-81
2024/01/17 20:11:59;;;;;;;8.02;4.80;;;10.20;77.70;;;;;;6189648;23;20009;-83
2024/01/17 20:14:26;;;;;;;7.65;4.55;;;10.20;77.70;;;;;;6214582;23;20009;-84
2024/01/17 20:16:53;;;;;;;8.00;4.65;;;10.10;77.70;;;;;;6164571;23;19985;-83
2024/01/17 20:19:22;;;;;;;8.52;4.70;;;10.30;77.80;;;;;;6189383;23;20000;-82
2024/01/17 20:21:59;;;;;;;7.47;4.70;;;10.10;77.60;;;;;;6213322;23;20032;-85
2024/01/17 20:24:25;;;;;;;7.45;4.72;;;10.80;78.10;;;;;;6189290;23;19989;-85
2024/01/17 20:45:08;;;;;;;7.78;5.05;;;10.10;77.70;;;;;;6189096;23;19997;-87
2024/01/17 20:47:43;;;;;;;7.03;4.55;;;10.10;77.70;;;;;;6203509;23;20001;-86
2024/01/17 20:50:13;;;;;;;7.50;5.10;;;10.10;77.70;;;;;;6166547;23;19989;-86
2024/01/17 21:01:17;;;;;;;8.60;5.00;;;10.10;77.70;;;;;;6193662;23;20013;-86
2024/01/17 21:25:18;;;;;;;6.90;4.40;;;10.10;77.80;;;;;;6192181;23;20016;-87
2024/01/17 21:32:55;;;;;;;7.28;4.50;;;10.00;77.80;;;;;;6198293;23;19998;-86
2024/01/17 21:35:26;;;;;;;8.35;5.05;;;10.10;77.90;;;;;;6158829;23;20028;-86
2024/01/17 22:36:43;;;;;;;8.93;4.65;;;10.00;77.90;;;;;;6202295;23;20044;-81
2024/01/17 22:43:04;;;;;;;7.05;4.55;;;10.00;77.90;;;;;;6213784;23;20004;-83
2024/01/17 22:46:01;;;;;;;7.47;4.78;;;10.00;77.90;;;;;;6179302;23;20013;-82
2024/01/17 23:37:59;;;;;;;7.72;5.05;;;10.00;78.00;;;;;;6152486;23;20013;-85
